sensor_id;sensor_type;location;lat;lon;timestamp;P1;durP1;ratioP1;P2;durP2;ratioP2
70487;SDS011;57976;48.174;16.370;2023-12-20T00:01:51;33.90;;;17.80;;
70487;SDS011;57976;48.174;16.370;2023-12-20T00:03:56;31.70;;;17.10;;
70487;SDS011;57976;48.174;16.370;2023-12-20T00:06:00;33.10;;;17.40;;
70487;SDS011;57976;48.174;16.370;2023-12-20T00:08:06;31.40;;;16.70;;
70487;SDS011;57976;48.174;16.370;2023-12-20T00:10:10;34.10;;;17.50;;
70487;SDS011;57976;48.174;16.370;2023-12-20T00:12:15;31.80;;;17.20;;
70487;SDS011;57976;48.174;16.370;2023-12-20T00:14:20;31.20;;;16.90;;
70487;SDS011;57976;48.174;16.370;2023-12-20T00:16:25;29.90;;;16.30;;
70487;SDS011;57976;48.174;16.370;2023-12-20T00:18:29;33.80;;;17.20;;
70487;SDS011;57976;48.174;16.370;2023-12-20T00:20:34;32.20;;;17.00;;
70487;SDS011;57976;48.174;16.370;2023-12-20T00:22:39;30.80;;;16.40;;
70487;SDS011;57976;48.174;16.370;2023-12-20T00:24:43;32.00;;;16.50;;
70487;SDS011;57976;48.174;16.370;2023-12-20T00:26:48;31.80;;;17.20;;
70487;SDS011;57976;48.174;16.370;2023-12-20T00:28:53;28.10;;;14.70;;
70487;SDS011;57976;48.174;16.370;2023-12-20T00:30:57;31.50;;;16.80;;
70487;SDS011;57976;48.174;16.370;2023-12-20T00:33:02;29.80;;;16.50;;
70487;SDS011;57976;48.174;16.370;2023-12-20T00:35:08;32.50;;;17.10;;
70487;SDS011;57976;48.174;16.370;2023-12-20T00:37:12;33.10;;;17.50;;
70487;SDS011;57976;48.174;16.370;2023-12-20T00:39:17;33.00;;;17.80;;
70487;SDS011;57976;48.174;16.370;2023-12-20T00:41:22;32.00;;;16.90;;
70487;SDS011;57976;48.174;16.370;2023-12-20T00:43:27;31.20;;;17.20;;
70487;SDS011;57976;48.174;16.370;2023-12-20T00:45:31;32.20;;;17.20;;
70487;SDS011;57976;48.174;16.370;2023-12-20T00:47:36;32.40;;;17.00;;
70487;SDS011;57976;48.174;16.370;2023-12-20T00:49:41;31.80;;;17.20;;
70487;SDS011;57976;48.174;16.370;2023-12-20T00:51:49;34.70;;;17.20;;
70487;SDS011;57976;48.174;16.370;2023-12-20T00:53:54;31.60;;;16.90;;
70487;SDS011;57976;48.174;16.370;2023-12-20T00:55:58;32.60;;;17.50;;
70487;SDS011;57976;48.174;16.370;2023-12-20T00:58:03;31.40;;;17.00;;
70487;SDS011;57976;48.174;16.370;2023-12-20T01:00:09;31.20;;;17.20;;
70487;SDS011;57976;48.174;16.370;2023-12-20T01:02:14;33.40;;;17.00;;
70487;SDS011;57976;48.174;16.370;2023-12-20T01:04:19;33.80;;;16.50;;
70487;SDS011;57976;48.174;16.370;2023-12-20T01:06:24;31.40;;;16.60;;
70487;SDS011;57976;48.174;16.370;2023-12-20T01:08:28;34.30;;;16.70;;
70487;SDS011;57976;48.174;16.370;2023-12-20T01:10:33;33.60;;;17.10;;
70487;SDS011;57976;48.174;16.370;2023-12-20T01:12:38;32.40;;;17.00;;
70487;SDS011;57976;48.174;16.370;2023-12-20T01:14:42;32.10;;;16.90;;
70487;SDS011;57976;48.174;16.370;2023-12-20T01:16:47;31.70;;;16.80;;
70487;SDS011;57976;48.174;16.370;2023-12-20T01:18:52;33.10;;;17.10;;
70487;SDS011;57976;48.174;16.370;2023-12-20T01:20:56;30.50;;;16.30;;
70487;SDS011;57976;48.174;16.370;2023-12-20T01:23:06;31.40;;;16.10;;
70487;SDS011;57976;48.174;16.370;2023-12-20T01:25:10;31.20;;;16.00;;
70487;SDS011;57976;48.174;16.370;2023-12-20T01:27:15;30.30;;;15.60;;
70487;SDS011;57976;48.174;16.370;2023-12-20T01:29:20;29.30;;;16.00;;
70487;SDS011;57976;48.174;16.370;2023-12-20T01:31:25;30.60;;;15.90;;
70487;SDS011;57976;48.174;16.370;2023-12-20T01:33:29;27.20;;;14.20;;
70487;SDS011;57976;48.174;16.370;2023-12-20T01:35:34;30.00;;;15.60;;
70487;SDS011;57976;48.174;16.370;2023-12-20T01:37:39;27.60;;;15.50;;
70487;SDS011;57976;48.174;16.370;2023-12-20T01:39:44;30.60;;;15.50;;
70487;SDS011;57976;48.174;16.370;2023-12-20T01:41:48;29.00;;;15.10;;
70487;SDS011;57976;48.174;16.370;2023-12-20T01:43:53;29.80;;;15.00;;
70487;SDS011;57976;48.174;16.370;2023-12-20T01:45:58;29.40;;;15.60;;
70487;SDS011;57976;48.174;16.370;2023-12-20T01:48:03;28.30;;;15.40;;
70487;SDS011;57976;48.174;16.370;2023-12-20T01:50:10;27.80;;;15.40;;
70487;SDS011;57976;48.174;16.370;2023-12-20T01:52:14;29.10;;;14.90;;
70487;SDS011;57976;48.174;16.370;2023-12-20T01:54:19;30.40;;;16.00;;
70487;SDS011;57976;48.174;16.370;2023-12-20T01:56:25;29.60;;;16.30;;
70487;SDS011;57976;48.174;16.370;2023-12-20T01:58:31;28.90;;;16.30;;
70487;SDS011;57976;48.174;16.370;2023-12-20T02:00:36;28.50;;;16.20;;
70487;SDS011;57976;48.174;16.370;2023-12-20T02:02:41;29.80;;;16.10;;
70487;SDS011;57976;48.174;16.370;2023-12-20T02:04:50;31.30;;;16.20;;
70487;SDS011;57976;48.174;16.370;2023-12-20T02:06:56;30.80;;;16.30;;
70487;SDS011;57976;48.174;16.370;2023-12-20T02:09:01;29.20;;;15.90;;
70487;SDS011;57976;48.174;16.370;2023-12-20T02:11:06;28.50;;;15.80;;
70487;SDS011;57976;48.174;16.370;2023-12-20T02:13:11;28.70;;;15.50;;
70487;SDS011;57976;48.174;16.370;2023-12-20T02:15:16;28.20;;;15.20;;
70487;SDS011;57976;48.174;16.370;2023-12-20T02:17:20;29.50;;;16.10;;
70487;SDS011;57976;48.174;16.370;2023-12-20T02:19:26;29.10;;;15.80;;
70487;SDS011;57976;48.174;16.370;2023-12-20T02:21:33;25.80;;;15.00;;
70487;SDS011;57976;48.174;16.370;2023-12-20T02:23:37;28.00;;;15.40;;
70487;SDS011;57976;48.174;16.370;2023-12-20T02:25:42;24.80;;;13.90;;
70487;SDS011;57976;48.174;16.370;2023-12-20T02:27:47;24.20;;;12.80;;
70487;SDS011;57976;48.174;16.370;2023-12-20T02:29:53;21.10;;;11.60;;
70487;SDS011;57976;48.174;16.370;2023-12-20T02:31:58;19.70;;;10.60;;
70487;SDS011;57976;48.174;16.370;2023-12-20T02:34:03;19.20;;;10.20;;
70487;SDS011;57976;48.174;16.370;2023-12-20T02:36:07;18.90;;;10.40;;
70487;SDS011;57976;48.174;16.370;2023-12-20T02:38:12;18.20;;;9.50;;
70487;SDS011;57976;48.174;16.370;2023-12-20T02:40:17;18.30;;;10.00;;
70487;SDS011;57976;48.174;16.370;2023-12-20T02:42:21;17.30;;;9.00;;
70487;SDS011;57976;48.174;16.370;2023-12-20T02:44:26;18.10;;;9.50;;
70487;SDS011;57976;48.174;16.370;2023-12-20T02:46:31;18.50;;;9.50;;
70487;SDS011;57976;48.174;16.370;2023-12-20T02:48:35;19.20;;;10.50;;
70487;SDS011;57976;48.174;16.370;2023-12-20T02:50:40;20.00;;;10.60;;
70487;SDS011;57976;48.174;16.370;2023-12-20T02:52:45;19.60;;;10.40;;
70487;SDS011;57976;48.174;16.370;2023-12-20T02:54:50;19.60;;;10.30;;
70487;SDS011;57976;48.174;16.370;2023-12-20T02:56:55;18.50;;;9.20;;
70487;SDS011;57976;48.174;16.370;2023-12-20T02:58:59;15.50;;;8.20;;
70487;SDS011;57976;48.174;16.370;2023-12-20T03:01:04;18.20;;;10.00;;
70487;SDS011;57976;48.174;16.370;2023-12-20T03:03:09;18.80;;;10.00;;
70487;SDS011;57976;48.174;16.370;2023-12-20T03:05:14;19.30;;;10.70;;
70487;SDS011;57976;48.174;16.370;2023-12-20T03:07:19;17.80;;;9.60;;
70487;SDS011;57976;48.174;16.370;2023-12-20T03:09:23;17.60;;;9.10;;
70487;SDS011;57976;48.174;16.370;2023-12-20T03:11:28;18.70;;;10.90;;
70487;SDS011;57976;48.174;16.370;2023-12-20T03:13:33;19.90;;;11.50;;
70487;SDS011;57976;48.174;16.370;2023-12-20T03:15:37;19.80;;;11.70;;
70487;SDS011;57976;48.174;16.370;2023-12-20T03:17:42;21.00;;;12.10;;
70487;SDS011;57976;48.174;16.370;2023-12-20T03:19:48;23.30;;;13.00;;
70487;SDS011;57976;48.174;16.370;2023-12-20T03:21:52;24.10;;;13.50;;
70487;SDS011;57976;48.174;16.370;2023-12-20T03:23:57;22.50;;;12.90;;
70487;SDS011;57976;48.174;16.370;2023-12-20T03:26:02;21.20;;;12.60;;
70487;SDS011;57976;48.174;16.370;2023-12-20T03:28:10;23.60;;;13.30;;
70487;SDS011;57976;48.174;16.370;2023-12-20T03:30:17;23.10;;;13.30;;
70487;SDS011;57976;48.174;16.370;2023-12-20T03:32:22;21.20;;;11.90;;
70487;SDS011;57976;48.174;16.370;2023-12-20T03:34:27;22.20;;;12.60;;
70487;SDS011;57976;48.174;16.370;2023-12-20T03:36:32;21.50;;;11.70;;
70487;SDS011;57976;48.174;16.370;2023-12-20T03:38:37;20.00;;;10.80;;
70487;SDS011;57976;48.174;16.370;2023-12-20T03:40:42;22.20;;;12.20;;
70487;SDS011;57976;48.174;16.370;2023-12-20T03:42:46;22.00;;;12.20;;
70487;SDS011;57976;48.174;16.370;2023-12-20T03:44:51;20.00;;;11.30;;
70487;SDS011;57976;48.174;16.370;2023-12-20T03:46:56;21.40;;;11.90;;
70487;SDS011;57976;48.174;16.370;2023-12-20T03:49:00;19.40;;;10.90;;
70487;SDS011;57976;48.174;16.370;2023-12-20T03:51:07;22.40;;;12.00;;
70487;SDS011;57976;48.174;16.370;2023-12-20T03:53:11;20.70;;;10.80;;
70487;SDS011;57976;48.174;16.370;2023-12-20T03:55:16;20.90;;;10.90;;
70487;SDS011;57976;48.174;16.370;2023-12-20T03:57:21;21.90;;;11.90;;
70487;SDS011;57976;48.174;16.370;2023-12-20T03:59:25;22.40;;;12.10;;
70487;SDS011;57976;48.174;16.370;2023-12-20T04:01:30;24.40;;;12.80;;
70487;SDS011;57976;48.174;16.370;2023-12-20T04:03:35;23.30;;;13.50;;
70487;SDS011;57976;48.174;16.370;2023-12-20T04:05:40;23.20;;;13.20;;
70487;SDS011;57976;48.174;16.370;2023-12-20T04:07:45;23.70;;;13.70;;
70487;SDS011;57976;48.174;16.370;2023-12-20T04:09:50;23.70;;;13.10;;
70487;SDS011;57976;48.174;16.370;2023-12-20T04:11:55;24.50;;;12.70;;
70487;SDS011;57976;48.174;16.370;2023-12-20T04:14:00;21.90;;;12.50;;
70487;SDS011;57976;48.174;16.370;2023-12-20T04:16:05;21.10;;;12.40;;
70487;SDS011;57976;48.174;16.370;2023-12-20T04:18:10;21.20;;;11.80;;
70487;SDS011;57976;48.174;16.370;2023-12-20T04:20:14;22.00;;;11.70;;
70487;SDS011;57976;48.174;16.370;2023-12-20T04:22:20;20.30;;;10.90;;
70487;SDS011;57976;48.174;16.370;2023-12-20T04:24:25;20.80;;;11.40;;
70487;SDS011;57976;48.174;16.370;2023-12-20T04:26:29;21.10;;;10.90;;
70487;SDS011;57976;48.174;16.370;2023-12-20T04:28:34;20.80;;;10.70;;
70487;SDS011;57976;48.174;16.370;2023-12-20T04:30:39;19.90;;;10.50;;
70487;SDS011;57976;48.174;16.370;2023-12-20T04:32:44;19.80;;;10.70;;
70487;SDS011;57976;48.174;16.370;2023-12-20T04:34:49;18.90;;;10.20;;
70487;SDS011;57976;48.174;16.370;2023-12-20T04:36:53;19.80;;;11.10;;
70487;SDS011;57976;48.174;16.370;2023-12-20T04:38:58;19.10;;;10.40;;
70487;SDS011;57976;48.174;16.370;2023-12-20T04:41:03;20.80;;;10.90;;
70487;SDS011;57976;48.174;16.370;2023-12-20T04:43:07;18.00;;;8.80;;
70487;SDS011;57976;48.174;16.370;2023-12-20T04:45:12;16.60;;;8.70;;
70487;SDS011;57976;48.174;16.370;2023-12-20T04:47:17;16.20;;;8.30;;
70487;SDS011;57976;48.174;16.370;2023-12-20T04:49:22;20.10;;;10.30;;
70487;SDS011;57976;48.174;16.370;2023-12-20T04:51:26;17.90;;;9.20;;
70487;SDS011;57976;48.174;16.370;2023-12-20T04:53:31;18.90;;;9.40;;
70487;SDS011;57976;48.174;16.370;2023-12-20T04:55:36;16.60;;;9.00;;
70487;SDS011;57976;48.174;16.370;2023-12-20T04:57:41;15.70;;;8.30;;
70487;SDS011;57976;48.174;16.370;2023-12-20T04:59:46;13.40;;;6.90;;
70487;SDS011;57976;48.174;16.370;2023-12-20T05:01:50;16.50;;;8.40;;
70487;SDS011;57976;48.174;16.370;2023-12-20T05:03:55;16.00;;;7.70;;
70487;SDS011;57976;48.174;16.370;2023-12-20T05:06:00;15.30;;;7.30;;
70487;SDS011;57976;48.174;16.370;2023-12-20T05:08:05;11.40;;;5.90;;
70487;SDS011;57976;48.174;16.370;2023-12-20T05:10:10;11.00;;;5.70;;
70487;SDS011;57976;48.174;16.370;2023-12-20T05:12:15;10.20;;;5.10;;
70487;SDS011;57976;48.174;16.370;2023-12-20T05:14:20;10.20;;;5.00;;
70487;SDS011;57976;48.174;16.370;2023-12-20T05:16:24;12.10;;;5.30;;
70487;SDS011;57976;48.174;16.370;2023-12-20T05:18:29;11.10;;;5.30;;
70487;SDS011;57976;48.174;16.370;2023-12-20T05:20:34;10.30;;;5.00;;
70487;SDS011;57976;48.174;16.370;2023-12-20T05:22:38;11.50;;;5.80;;
70487;SDS011;57976;48.174;16.370;2023-12-20T05:24:43;15.10;;;6.70;;
70487;SDS011;57976;48.174;16.370;2023-12-20T05:26:48;14.50;;;6.90;;
70487;SDS011;57976;48.174;16.370;2023-12-20T05:28:56;16.50;;;7.50;;
70487;SDS011;57976;48.174;16.370;2023-12-20T05:31:00;15.80;;;7.70;;
70487;SDS011;57976;48.174;16.370;2023-12-20T05:33:05;13.60;;;6.70;;
70487;SDS011;57976;48.174;16.370;2023-12-20T05:35:10;13.10;;;6.80;;
70487;SDS011;57976;48.174;16.370;2023-12-20T05:37:15;12.60;;;6.20;;
70487;SDS011;57976;48.174;16.370;2023-12-20T05:39:20;14.80;;;7.50;;
70487;SDS011;57976;48.174;16.370;2023-12-20T05:41:24;16.50;;;8.00;;
70487;SDS011;57976;48.174;16.370;2023-12-20T05:43:29;13.80;;;6.70;;
70487;SDS011;57976;48.174;16.370;2023-12-20T05:45:34;12.90;;;6.30;;
70487;SDS011;57976;48.174;16.370;2023-12-20T05:47:38;12.30;;;5.10;;
70487;SDS011;57976;48.174;16.370;2023-12-20T05:49:43;14.00;;;6.40;;
70487;SDS011;57976;48.174;16.370;2023-12-20T05:51:48;9.40;;;4.70;;
70487;SDS011;57976;48.174;16.370;2023-12-20T05:53:53;11.80;;;5.60;;
70487;SDS011;57976;48.174;16.370;2023-12-20T05:55:57;13.40;;;6.00;;
70487;SDS011;57976;48.174;16.370;2023-12-20T05:58:02;10.50;;;5.20;;
70487;SDS011;57976;48.174;16.370;2023-12-20T06:00:08;12.70;;;5.40;;
70487;SDS011;57976;48.174;16.370;2023-12-20T06:02:15;10.70;;;4.90;;
70487;SDS011;57976;48.174;16.370;2023-12-20T06:04:20;26.00;;;12.20;;
70487;SDS011;57976;48.174;16.370;2023-12-20T06:06:26;15.90;;;8.20;;
70487;SDS011;57976;48.174;16.370;2023-12-20T06:08:30;10.10;;;4.70;;
70487;SDS011;57976;48.174;16.370;2023-12-20T06:10:35;8.30;;;4.00;;
70487;SDS011;57976;48.174;16.370;2023-12-20T06:12:39;10.40;;;4.30;;
70487;SDS011;57976;48.174;16.370;2023-12-20T06:14:44;8.50;;;3.60;;
70487;SDS011;57976;48.174;16.370;2023-12-20T06:16:49;8.50;;;3.60;;
70487;SDS011;57976;48.174;16.370;2023-12-20T06:18:53;8.10;;;3.10;;
70487;SDS011;57976;48.174;16.370;2023-12-20T06:20:58;7.50;;;2.90;;
70487;SDS011;57976;48.174;16.370;2023-12-20T06:23:03;6.90;;;2.80;;
70487;SDS011;57976;48.174;16.370;2023-12-20T06:25:08;7.60;;;2.60;;
70487;SDS011;57976;48.174;16.370;2023-12-20T06:27:13;5.40;;;2.00;;
70487;SDS011;57976;48.174;16.370;2023-12-20T06:29:17;7.00;;;2.40;;
70487;SDS011;57976;48.174;16.370;2023-12-20T06:31:22;5.90;;;2.20;;
70487;SDS011;57976;48.174;16.370;2023-12-20T06:33:27;6.90;;;2.40;;
70487;SDS011;57976;48.174;16.370;2023-12-20T06:35:31;5.90;;;2.00;;
70487;SDS011;57976;48.174;16.370;2023-12-20T06:37:39;6.60;;;2.10;;
70487;SDS011;57976;48.174;16.370;2023-12-20T06:39:43;5.20;;;1.90;;
70487;SDS011;57976;48.174;16.370;2023-12-20T06:41:48;6.30;;;2.00;;
70487;SDS011;57976;48.174;16.370;2023-12-20T06:43:54;6.10;;;2.00;;
70487;SDS011;57976;48.174;16.370;2023-12-20T06:45:59;5.90;;;2.30;;
70487;SDS011;57976;48.174;16.370;2023-12-20T06:48:05;5.70;;;1.90;;
70487;SDS011;57976;48.174;16.370;2023-12-20T06:50:10;5.90;;;2.40;;
70487;SDS011;57976;48.174;16.370;2023-12-20T06:52:15;6.00;;;2.00;;
70487;SDS011;57976;48.174;16.370;2023-12-20T06:54:19;6.70;;;2.20;;
70487;SDS011;57976;48.174;16.370;2023-12-20T06:56:24;5.50;;;1.90;;
70487;SDS011;57976;48.174;16.370;2023-12-20T06:58:29;6.20;;;1.90;;
70487;SDS011;57976;48.174;16.370;2023-12-20T07:00:34;5.30;;;1.80;;
70487;SDS011;57976;48.174;16.370;2023-12-20T07:02:39;5.70;;;1.80;;
70487;SDS011;57976;48.174;16.370;2023-12-20T07:04:43;5.60;;;1.90;;
70487;SDS011;57976;48.174;16.370;2023-12-20T07:06:48;5.50;;;2.00;;
70487;SDS011;57976;48.174;16.370;2023-12-20T07:08:53;5.90;;;1.90;;
70487;SDS011;57976;48.174;16.370;2023-12-20T07:10:58;5.30;;;1.90;;
70487;SDS011;57976;48.174;16.370;2023-12-20T07:13:02;5.60;;;2.10;;
70487;SDS011;57976;48.174;16.370;2023-12-20T07:15:08;6.10;;;2.20;;
70487;SDS011;57976;48.174;16.370;2023-12-20T07:17:13;6.00;;;2.00;;
70487;SDS011;57976;48.174;16.370;2023-12-20T07:19:21;5.90;;;2.10;;
70487;SDS011;57976;48.174;16.370;2023-12-20T07:21:25;5.90;;;2.20;;
70487;SDS011;57976;48.174;16.370;2023-12-20T07:23:30;6.60;;;2.10;;
70487;SDS011;57976;48.174;16.370;2023-12-20T07:25:35;6.30;;;2.20;;
70487;SDS011;57976;48.174;16.370;2023-12-20T07:27:39;6.90;;;2.10;;
70487;SDS011;57976;48.174;16.370;2023-12-20T07:29:47;6.00;;;1.90;;
70487;SDS011;57976;48.174;16.370;2023-12-20T07:31:52;6.30;;;2.30;;
70487;SDS011;57976;48.174;16.370;2023-12-20T07:33:57;5.80;;;2.20;;
70487;SDS011;57976;48.174;16.370;2023-12-20T07:36:02;6.80;;;2.20;;
70487;SDS011;57976;48.174;16.370;2023-12-20T07:38:07;6.30;;;2.10;;
70487;SDS011;57976;48.174;16.370;2023-12-20T07:40:12;7.20;;;2.30;;
70487;SDS011;57976;48.174;16.370;2023-12-20T07:42:16;7.40;;;2.20;;
70487;SDS011;57976;48.174;16.370;2023-12-20T07:44:21;7.30;;;2.40;;
70487;SDS011;57976;48.174;16.370;2023-12-20T07:46:26;6.30;;;2.20;;
70487;SDS011;57976;48.174;16.370;2023-12-20T07:48:31;6.20;;;2.20;;
70487;SDS011;57976;48.174;16.370;2023-12-20T07:50:36;6.40;;;2.20;;
70487;SDS011;57976;48.174;16.370;2023-12-20T07:52:41;5.50;;;2.10;;
70487;SDS011;57976;48.174;16.370;2023-12-20T07:54:46;6.30;;;2.40;;
70487;SDS011;57976;48.174;16.370;2023-12-20T07:56:50;7.10;;;2.70;;
70487;SDS011;57976;48.174;16.370;2023-12-20T07:58:55;6.40;;;2.30;;
70487;SDS011;57976;48.174;16.370;2023-12-20T08:01:02;6.90;;;2.60;;
70487;SDS011;57976;48.174;16.370;2023-12-20T08:03:07;6.30;;;2.80;;
70487;SDS011;57976;48.174;16.370;2023-12-20T08:05:12;6.20;;;2.70;;
70487;SDS011;57976;48.174;16.370;2023-12-20T08:07:19;7.50;;;2.50;;
70487;SDS011;57976;48.174;16.370;2023-12-20T08:09:23;9.40;;;2.90;;
70487;SDS011;57976;48.174;16.370;2023-12-20T08:11:28;6.80;;;2.30;;
70487;SDS011;57976;48.174;16.370;2023-12-20T08:13:33;6.40;;;2.70;;
70487;SDS011;57976;48.174;16.370;2023-12-20T08:15:37;7.30;;;2.60;;
70487;SDS011;57976;48.174;16.370;2023-12-20T08:17:42;6.30;;;2.80;;
70487;SDS011;57976;48.174;16.370;2023-12-20T08:19:47;7.30;;;2.90;;
70487;SDS011;57976;48.174;16.370;2023-12-20T08:21:52;7.50;;;2.90;;
70487;SDS011;57976;48.174;16.370;2023-12-20T08:23:57;6.90;;;3.10;;
70487;SDS011;57976;48.174;16.370;2023-12-20T08:26:04;7.40;;;2.80;;
70487;SDS011;57976;48.174;16.370;2023-12-20T08:28:09;7.60;;;2.70;;
70487;SDS011;57976;48.174;16.370;2023-12-20T08:30:14;6.60;;;2.80;;
70487;SDS011;57976;48.174;16.370;2023-12-20T08:32:19;7.20;;;2.80;;
70487;SDS011;57976;48.174;16.370;2023-12-20T08:34:24;7.90;;;2.80;;
70487;SDS011;57976;48.174;16.370;2023-12-20T08:36:28;6.90;;;2.90;;
70487;SDS011;57976;48.174;16.370;2023-12-20T08:38:33;7.50;;;2.90;;
70487;SDS011;57976;48.174;16.370;2023-12-20T08:40:38;6.60;;;2.70;;
70487;SDS011;57976;48.174;16.370;2023-12-20T08:42:42;6.30;;;2.70;;
70487;SDS011;57976;48.174;16.370;2023-12-20T08:44:47;7.70;;;2.80;;
70487;SDS011;57976;48.174;16.370;2023-12-20T08:46:52;7.60;;;2.80;;
70487;SDS011;57976;48.174;16.370;2023-12-20T08:48:56;6.10;;;2.60;;
70487;SDS011;57976;48.174;16.370;2023-12-20T08:51:01;6.00;;;2.60;;
70487;SDS011;57976;48.174;16.370;2023-12-20T08:53:06;7.30;;;2.50;;
70487;SDS011;57976;48.174;16.370;2023-12-20T08:55:11;8.00;;;2.80;;
70487;SDS011;57976;48.174;16.370;2023-12-20T08:57:16;7.20;;;2.80;;
70487;SDS011;57976;48.174;16.370;2023-12-20T08:59:22;6.10;;;2.30;;
70487;SDS011;57976;48.174;16.370;2023-12-20T09:01:27;6.20;;;2.50;;
70487;SDS011;57976;48.174;16.370;2023-12-20T09:03:32;6.50;;;2.80;;
70487;SDS011;57976;48.174;16.370;2023-12-20T09:05:36;6.10;;;2.30;;
70487;SDS011;57976;48.174;16.370;2023-12-20T09:07:41;6.30;;;2.60;;
70487;SDS011;57976;48.174;16.370;2023-12-20T09:09:46;7.30;;;2.20;;
70487;SDS011;57976;48.174;16.370;2023-12-20T09:11:51;6.80;;;2.50;;
70487;SDS011;57976;48.174;16.370;2023-12-20T09:13:55;5.90;;;2.40;;
70487;SDS011;57976;48.174;16.370;2023-12-20T09:16:00;6.00;;;2.40;;
70487;SDS011;57976;48.174;16.370;2023-12-20T09:18:05;6.00;;;2.50;;
70487;SDS011;57976;48.174;16.370;2023-12-20T09:20:10;5.70;;;2.40;;
70487;SDS011;57976;48.174;16.370;2023-12-20T09:22:15;5.60;;;2.10;;
70487;SDS011;57976;48.174;16.370;2023-12-20T09:24:20;5.20;;;1.70;;
70487;SDS011;57976;48.174;16.370;2023-12-20T09:26:25;5.20;;;1.80;;
70487;SDS011;57976;48.174;16.370;2023-12-20T09:28:29;6.50;;;1.70;;
70487;SDS011;57976;48.174;16.370;2023-12-20T09:30:34;5.50;;;1.70;;
70487;SDS011;57976;48.174;16.370;2023-12-20T09:32:39;5.60;;;1.60;;
70487;SDS011;57976;48.174;16.370;2023-12-20T09:34:44;4.30;;;1.30;;
70487;SDS011;57976;48.174;16.370;2023-12-20T09:36:50;4.90;;;1.50;;
70487;SDS011;57976;48.174;16.370;2023-12-20T09:38:54;4.50;;;1.40;;
70487;SDS011;57976;48.174;16.370;2023-12-20T09:40:59;4.20;;;1.40;;
70487;SDS011;57976;48.174;16.370;2023-12-20T09:43:04;5.40;;;1.60;;
70487;SDS011;57976;48.174;16.370;2023-12-20T09:45:14;4.50;;;1.40;;
70487;SDS011;57976;48.174;16.370;2023-12-20T09:47:22;4.00;;;1.30;;
70487;SDS011;57976;48.174;16.370;2023-12-20T09:49:27;4.90;;;1.40;;
70487;SDS011;57976;48.174;16.370;2023-12-20T09:51:33;4.30;;;1.30;;
70487;SDS011;57976;48.174;16.370;2023-12-20T09:53:39;4.00;;;1.10;;
70487;SDS011;57976;48.174;16.370;2023-12-20T09:55:44;3.50;;;1.10;;
70487;SDS011;57976;48.174;16.370;2023-12-20T09:57:49;4.70;;;1.30;;
70487;SDS011;57976;48.174;16.370;2023-12-20T09:59:54;4.60;;;1.50;;
70487;SDS011;57976;48.174;16.370;2023-12-20T10:01:59;4.10;;;1.20;;
70487;SDS011;57976;48.174;16.370;2023-12-20T10:04:12;4.60;;;1.10;;
70487;SDS011;57976;48.174;16.370;2023-12-20T10:06:32;4.60;;;1.20;;
70487;SDS011;57976;48.174;16.370;2023-12-20T10:08:36;4.40;;;1.30;;
70487;SDS011;57976;48.174;16.370;2023-12-20T10:10:41;3.80;;;1.20;;
70487;SDS011;57976;48.174;16.370;2023-12-20T10:13:02;4.00;;;1.20;;
70487;SDS011;57976;48.174;16.370;2023-12-20T10:15:08;4.60;;;1.30;;
70487;SDS011;57976;48.174;16.370;2023-12-20T10:17:13;4.90;;;1.30;;
70487;SDS011;57976;48.174;16.370;2023-12-20T10:19:17;4.60;;;1.50;;
70487;SDS011;57976;48.174;16.370;2023-12-20T10:21:24;4.50;;;1.30;;
70487;SDS011;57976;48.174;16.370;2023-12-20T10:23:29;5.10;;;1.70;;
70487;SDS011;57976;48.174;16.370;2023-12-20T10:25:34;4.10;;;1.40;;
70487;SDS011;57976;48.174;16.370;2023-12-20T10:27:39;4.30;;;1.30;;
70487;SDS011;57976;48.174;16.370;2023-12-20T10:29:44;5.10;;;1.60;;
70487;SDS011;57976;48.174;16.370;2023-12-20T10:31:48;4.70;;;1.50;;
70487;SDS011;57976;48.174;16.370;2023-12-20T10:33:53;4.10;;;1.20;;
70487;SDS011;57976;48.174;16.370;2023-12-20T10:35:58;4.50;;;1.60;;
70487;SDS011;57976;48.174;16.370;2023-12-20T10:38:04;5.20;;;1.60;;
70487;SDS011;57976;48.174;16.370;2023-12-20T10:40:10;5.20;;;2.00;;
70487;SDS011;57976;48.174;16.370;2023-12-20T10:42:16;4.60;;;1.50;;
70487;SDS011;57976;48.174;16.370;2023-12-20T10:44:21;7.00;;;2.80;;
70487;SDS011;57976;48.174;16.370;2023-12-20T10:46:25;6.00;;;2.30;;
70487;SDS011;57976;48.174;16.370;2023-12-20T10:48:31;5.40;;;1.70;;
70487;SDS011;57976;48.174;16.370;2023-12-20T10:50:37;5.00;;;1.50;;
70487;SDS011;57976;48.174;16.370;2023-12-20T10:52:44;6.00;;;1.70;;
70487;SDS011;57976;48.174;16.370;2023-12-20T10:54:49;4.90;;;1.70;;
70487;SDS011;57976;48.174;16.370;2023-12-20T10:56:54;5.40;;;1.90;;
70487;SDS011;57976;48.174;16.370;2023-12-20T10:59:02;5.10;;;1.60;;
70487;SDS011;57976;48.174;16.370;2023-12-20T11:01:09;6.00;;;2.10;;
70487;SDS011;57976;48.174;16.370;2023-12-20T11:03:15;5.20;;;1.60;;
70487;SDS011;57976;48.174;16.370;2023-12-20T11:05:25;5.10;;;1.70;;
70487;SDS011;57976;48.174;16.370;2023-12-20T11:07:39;4.50;;;1.70;;
70487;SDS011;57976;48.174;16.370;2023-12-20T11:09:53;5.20;;;1.80;;
70487;SDS011;57976;48.174;16.370;2023-12-20T11:12:04;4.90;;;1.80;;
70487;SDS011;57976;48.174;16.370;2023-12-20T11:14:14;4.60;;;1.40;;
70487;SDS011;57976;48.174;16.370;2023-12-20T11:16:25;4.70;;;1.40;;
70487;SDS011;57976;48.174;16.370;2023-12-20T11:18:44;4.40;;;1.50;;
70487;SDS011;57976;48.174;16.370;2023-12-20T11:20:49;4.30;;;1.50;;
70487;SDS011;57976;48.174;16.370;2023-12-20T11:22:54;4.20;;;1.30;;
70487;SDS011;57976;48.174;16.370;2023-12-20T11:25:02;5.00;;;1.60;;
70487;SDS011;57976;48.174;16.370;2023-12-20T11:27:08;5.20;;;1.70;;
70487;SDS011;57976;48.174;16.370;2023-12-20T11:31:41;4.30;;;1.50;;
70487;SDS011;57976;48.174;16.370;2023-12-20T11:33:45;4.40;;;1.30;;
70487;SDS011;57976;48.174;16.370;2023-12-20T11:35:50;4.50;;;1.30;;
70487;SDS011;57976;48.174;16.370;2023-12-20T11:37:58;5.90;;;1.20;;
70487;SDS011;57976;48.174;16.370;2023-12-20T11:40:05;3.90;;;1.30;;
70487;SDS011;57976;48.174;16.370;2023-12-20T11:42:11;4.20;;;1.50;;
70487;SDS011;57976;48.174;16.370;2023-12-20T11:44:18;4.20;;;1.40;;
70487;SDS011;57976;48.174;16.370;2023-12-20T11:46:23;4.60;;;1.50;;
70487;SDS011;57976;48.174;16.370;2023-12-20T11:48:28;4.10;;;1.20;;
70487;SDS011;57976;48.174;16.370;2023-12-20T11:50:33;4.80;;;1.60;;
70487;SDS011;57976;48.174;16.370;2023-12-20T11:52:38;3.80;;;1.20;;
70487;SDS011;57976;48.174;16.370;2023-12-20T11:54:43;4.20;;;1.10;;
70487;SDS011;57976;48.174;16.370;2023-12-20T11:56:48;4.10;;;1.10;;
70487;SDS011;57976;48.174;16.370;2023-12-20T11:58:53;3.90;;;1.10;;
70487;SDS011;57976;48.174;16.370;2023-12-20T12:01:11;4.00;;;1.30;;
70487;SDS011;57976;48.174;16.370;2023-12-20T12:03:16;3.90;;;1.00;;
70487;SDS011;57976;48.174;16.370;2023-12-20T12:05:21;4.30;;;1.10;;
70487;SDS011;57976;48.174;16.370;2023-12-20T12:07:25;3.50;;;1.00;;
70487;SDS011;57976;48.174;16.370;2023-12-20T12:09:30;4.10;;;1.10;;
70487;SDS011;57976;48.174;16.370;2023-12-20T12:11:35;3.30;;;0.90;;
70487;SDS011;57976;48.174;16.370;2023-12-20T12:13:40;3.60;;;0.90;;
70487;SDS011;57976;48.174;16.370;2023-12-20T12:15:45;2.60;;;0.70;;
70487;SDS011;57976;48.174;16.370;2023-12-20T12:17:54;3.20;;;0.80;;